createdAt,value
2022-10-06T00:02:19.204Z,11.51
2022-10-06T00:04:46.497Z,11.48
2022-10-06T00:07:13.835Z,11.44
2022-10-06T00:09:40.199Z,11.41
2022-10-06T00:12:06.942Z,11.43
2022-10-06T00:14:33.338Z,11.47
2022-10-06T00:16:59.855Z,11.53
2022-10-06T00:19:26.278Z,11.56
2022-10-06T00:21:53.249Z,11.59
2022-10-06T00:24:19.657Z,11.60
2022-10-06T00:26:47.284Z,11.63
2022-10-06T00:29:14.797Z,11.64
2022-10-06T00:31:41.781Z,11.62
2022-10-06T00:34:08.171Z,11.60
2022-10-06T00:36:34.619Z,11.55
2022-10-06T00:39:01.284Z,11.52
2022-10-06T00:41:28.686Z,11.45
2022-10-06T00:43:57.633Z,11.40
2022-10-06T00:46:24.247Z,11.36
2022-10-06T00:48:59.692Z,11.30
2022-10-06T00:51:27.264Z,11.26
2022-10-06T00:53:53.710Z,11.22
2022-10-06T00:56:20.137Z,11.18
2022-10-06T00:58:46.549Z,11.15
2022-10-06T01:01:13.160Z,11.11
2022-10-06T01:03:45.109Z,11.07
2022-10-06T01:06:11.705Z,11.02
2022-10-06T01:08:39.088Z,10.96
2022-10-06T01:11:06.663Z,10.91
2022-10-06T01:13:33.282Z,10.88
2022-10-06T01:16:09.251Z,10.86
2022-10-06T01:18:39.345Z,10.86
2022-10-06T01:21:17.156Z,10.86
2022-10-06T01:23:43.714Z,10.83
2022-10-06T01:26:11.416Z,10.79
2022-10-06T01:28:39.335Z,10.76
2022-10-06T01:31:07.788Z,10.70
2022-10-06T01:33:34.211Z,10.67
2022-10-06T01:36:00.632Z,10.61
2022-10-06T01:38:27.512Z,10.58
2022-10-06T01:40:54.296Z,10.54
2022-10-06T01:43:21.345Z,10.49
2022-10-06T01:45:58.225Z,10.44
2022-10-06T01:48:25.652Z,10.39
2022-10-06T01:50:52.457Z,10.36
2022-10-06T01:53:18.862Z,10.32
2022-10-06T01:55:46.361Z,10.28
2022-10-06T01:58:13.080Z,10.25
2022-10-06T02:00:40.412Z,10.20
2022-10-06T02:03:07.674Z,10.15
2022-10-06T02:05:34.827Z,10.12
2022-10-06T02:08:02.790Z,10.08
2022-10-06T02:10:29.192Z,10.05
2022-10-06T02:12:55.566Z,10.01
2022-10-06T02:15:21.975Z,9.98
2022-10-06T02:17:48.513Z,9.96
2022-10-06T02:20:15.367Z,9.94
2022-10-06T02:22:43.711Z,9.92
2022-10-06T02:25:11.295Z,9.88
2022-10-06T02:27:38.264Z,9.85
2022-10-06T02:30:06.695Z,9.82
2022-10-06T02:32:38.914Z,9.78
2022-10-06T02:35:07.701Z,9.74
2022-10-06T02:37:34.426Z,9.70
2022-10-06T02:40:00.773Z,9.67
2022-10-06T02:42:27.373Z,9.64
2022-10-06T02:44:53.931Z,9.62
2022-10-06T02:47:22.218Z,9.59
2022-10-06T02:49:48.543Z,9.56
2022-10-06T02:52:15.451Z,9.53
2022-10-06T02:54:42.399Z,9.52
2022-10-06T02:57:09.394Z,9.49
2022-10-06T02:59:36.409Z,9.46
2022-10-06T03:02:02.983Z,9.45
2022-10-06T03:04:29.934Z,9.42
2022-10-06T03:06:56.289Z,9.40
2022-10-06T03:09:22.708Z,9.39
2022-10-06T03:11:49.092Z,9.36
2022-10-06T03:14:19.253Z,9.34
2022-10-06T03:16:48.118Z,9.30
2022-10-06T03:19:14.495Z,9.27
2022-10-06T03:21:43.059Z,9.25
2022-10-06T03:24:10.309Z,9.25
2022-10-06T03:26:39.559Z,9.24
2022-10-06T03:29:11.141Z,9.21
2022-10-06T03:31:38.886Z,9.19
2022-10-06T03:34:05.819Z,9.17
2022-10-06T03:36:33.904Z,9.15
2022-10-06T03:39:02.617Z,9.13
2022-10-06T03:41:31.529Z,9.11
2022-10-06T03:43:59.542Z,9.10
2022-10-06T03:46:28.783Z,9.06
2022-10-06T03:48:57.262Z,9.04
2022-10-06T03:51:29.996Z,9.02
2022-10-06T03:53:57.146Z,9.01
2022-10-06T03:56:42.652Z,8.99
2022-10-06T03:59:11.523Z,8.98
2022-10-06T04:01:43.617Z,8.94
2022-10-06T04:04:11.232Z,8.92
2022-10-06T04:06:39.767Z,8.91
2022-10-06T04:09:14.759Z,8.90
2022-10-06T04:11:42.854Z,8.87
2022-10-06T04:14:12.947Z,8.85
2022-10-06T04:16:42.685Z,8.81
2022-10-06T04:19:11.038Z,8.79
2022-10-06T04:21:39.051Z,8.77
2022-10-06T04:24:07.085Z,8.75
2022-10-06T04:26:36.615Z,8.73
2022-10-06T04:29:03.212Z,8.71
2022-10-06T04:31:31.727Z,8.72
2022-10-06T04:33:59.835Z,8.71
2022-10-06T04:36:29.085Z,8.70
2022-10-06T04:38:58.778Z,8.68
2022-10-06T04:41:28.005Z,8.67
2022-10-06T04:43:55.575Z,8.64
2022-10-06T04:46:42.258Z,8.62
2022-10-06T04:49:13.344Z,8.59
2022-10-06T04:51:44.444Z,8.56
2022-10-06T04:54:10.842Z,8.55
2022-10-06T04:56:37.208Z,8.55
2022-10-06T05:01:35.645Z,8.50
2022-10-06T05:04:03.879Z,8.49
2022-10-06T05:06:31.446Z,8.47
2022-10-06T05:09:21.884Z,8.45
2022-10-06T05:11:48.236Z,8.44
2022-10-06T05:14:14.603Z,8.41
2022-10-06T05:16:42.896Z,8.39
2022-10-06T05:19:09.298Z,8.38
2022-10-06T05:21:36.140Z,8.36
2022-10-06T05:24:03.440Z,8.35
2022-10-06T05:26:31.682Z,8.32
2022-10-06T05:28:58.356Z,8.30
2022-10-06T05:31:27.720Z,8.28
2022-10-06T05:33:55.280Z,8.28
2022-10-06T05:36:30.353Z,8.27
2022-10-06T05:38:57.427Z,8.23
2022-10-06T05:41:26.412Z,8.23
2022-10-06T05:43:53.208Z,8.23
2022-10-06T05:46:30.448Z,8.22
2022-10-06T05:48:59.179Z,8.21
2022-10-06T05:51:30.947Z,8.20
2022-10-06T05:53:59.074Z,8.19
2022-10-06T05:56:33.291Z,8.21
2022-10-06T05:59:00.530Z,8.24
2022-10-06T06:01:35.279Z,8.28
2022-10-06T06:04:03.602Z,8.30
2022-10-06T06:06:37.888Z,8.37
2022-10-06T06:09:07.419Z,8.45
2022-10-06T06:11:35.687Z,8.66
2022-10-06T06:14:08.512Z,9.05
2022-10-06T06:16:36.923Z,9.49
2022-10-06T06:19:03.325Z,10.26
2022-10-06T06:21:30.043Z,11.10
2022-10-06T06:23:56.545Z,11.87
2022-10-06T06:26:28.666Z,12.52
2022-10-06T06:29:00.124Z,13.08
2022-10-06T06:31:29.745Z,13.68
2022-10-06T06:33:57.850Z,14.18
2022-10-06T06:36:25.696Z,14.67
2022-10-06T06:38:56.857Z,15.07
2022-10-06T06:41:27.105Z,15.54
2022-10-06T06:43:54.039Z,15.95
2022-10-06T06:46:24.839Z,16.23
2022-10-06T06:48:52.585Z,16.64
2022-10-06T06:51:24.154Z,16.93
2022-10-06T06:53:51.653Z,17.26
2022-10-06T06:56:18.901Z,17.58
2022-10-06T06:58:47.399Z,17.82
2022-10-06T07:01:17.210Z,18.16
2022-10-06T07:04:03.376Z,18.48
2022-10-06T07:06:31.055Z,18.86
2022-10-06T07:08:59.408Z,19.03
2022-10-06T07:11:32.003Z,19.31
2022-10-06T07:14:07.053Z,19.58
2022-10-06T07:16:52.557Z,19.34
2022-10-06T07:19:39.965Z,19.50
2022-10-06T07:22:28.094Z,19.80
2022-10-06T07:25:07.909Z,20.00
2022-10-06T07:27:43.330Z,19.99
2022-10-06T07:30:19.183Z,20.04
2022-10-06T07:32:47.238Z,20.06
2022-10-06T07:35:14.119Z,20.04
2022-10-06T07:37:40.707Z,20.07
2022-10-06T07:40:08.930Z,20.02
2022-10-06T07:42:48.091Z,20.06
2022-10-06T07:45:34.273Z,19.66
2022-10-06T07:48:01.983Z,17.75
2022-10-06T07:50:28.723Z,16.68
2022-10-06T07:52:55.097Z,15.98
2022-10-06T07:55:21.648Z,15.58
2022-10-06T07:57:50.871Z,15.27
2022-10-06T08:00:20.875Z,15.03
2022-10-06T08:02:47.343Z,14.86
2022-10-06T08:05:14.544Z,14.75
2022-10-06T08:07:41.180Z,14.68
2022-10-06T08:10:07.806Z,14.58
2022-10-06T08:12:34.376Z,14.55
2022-10-06T08:15:07.073Z,14.56
2022-10-06T08:17:38.313Z,14.50
2022-10-06T08:20:07.567Z,14.51
2022-10-06T08:22:36.032Z,14.55
2022-10-06T08:25:07.322Z,14.56
2022-10-06T08:27:35.641Z,14.45
2022-10-06T08:30:04.437Z,14.52
2022-10-06T08:32:32.100Z,14.60
2022-10-06T08:34:58.987Z,14.56
2022-10-06T08:37:27.187Z,14.62
2022-10-06T08:39:54.553Z,14.62
2022-10-06T08:42:42.191Z,14.62
2022-10-06T08:45:38.865Z,14.68
2022-10-06T08:48:19.455Z,14.69
2022-10-06T08:51:23.901Z,14.79
2022-10-06T08:54:08.155Z,14.89
2022-10-06T08:56:51.919Z,14.87
2022-10-06T08:59:18.273Z,14.92
2022-10-06T09:01:47.784Z,14.99
2022-10-06T09:04:23.187Z,15.04
2022-10-06T09:07:05.513Z,15.02
2022-10-06T09:09:56.215Z,15.00
2022-10-06T09:12:54.599Z,15.11
2022-10-06T09:15:48.114Z,15.17
2022-10-06T09:18:22.579Z,15.20
2022-10-06T09:21:06.462Z,15.20
2022-10-06T09:23:50.460Z,15.16
2022-10-06T09:26:29.202Z,15.18
2022-10-06T09:28:56.606Z,15.19
2022-10-06T09:31:25.876Z,15.18
2022-10-06T09:33:55.277Z,15.13
2022-10-06T09:36:22.194Z,15.13
2022-10-06T09:38:53.885Z,15.27
2022-10-06T09:41:49.819Z,15.43
2022-10-06T09:44:29.338Z,15.46
2022-10-06T09:46:55.671Z,15.53
2022-10-06T09:49:26.625Z,15.59
2022-10-06T09:52:16.187Z,15.63
2022-10-06T09:54:43.625Z,15.70
2022-10-06T09:57:21.381Z,15.82
2022-10-06T09:59:48.610Z,15.83
2022-10-06T10:02:30.521Z,15.75
2022-10-06T10:04:57.560Z,15.64
2022-10-06T10:07:26.988Z,15.65
2022-10-06T10:10:10.211Z,15.70
2022-10-06T10:12:36.608Z,15.82
2022-10-06T10:15:22.849Z,16.06
2022-10-06T10:17:52.075Z,16.14
2022-10-06T10:20:24.551Z,16.04
2022-10-06T10:22:59.511Z,15.99
2022-10-06T10:25:46.023Z,16.12
2022-10-06T10:28:56.398Z,16.47
2022-10-06T10:31:50.578Z,16.78
2022-10-06T10:34:38.314Z,17.09
2022-10-06T10:37:12.222Z,17.32
2022-10-06T10:40:07.860Z,17.55
2022-10-06T10:42:40.866Z,17.75
2022-10-06T10:45:22.572Z,17.88
2022-10-06T10:47:49.300Z,17.97
2022-10-06T10:50:30.751Z,17.86
2022-10-06T10:53:33.005Z,17.82
2022-10-06T10:56:00.452Z,17.59
2022-10-06T10:58:33.690Z,17.56
2022-10-06T11:01:08.251Z,17.53
2022-10-06T11:03:34.662Z,17.39
2022-10-06T11:06:30.292Z,17.34
2022-10-06T11:09:55.235Z,17.46
2022-10-06T11:12:54.234Z,17.55
2022-10-06T11:15:32.081Z,17.61
2022-10-06T11:18:22.292Z,17.67
2022-10-06T11:20:55.914Z,17.71
2022-10-06T11:23:45.263Z,17.79
2022-10-06T11:26:48.920Z,17.88
2022-10-06T11:29:37.887Z,18.00
2022-10-06T11:32:46.442Z,18.02
2022-10-06T11:35:17.614Z,18.08
2022-10-06T11:38:20.333Z,18.05
2022-10-06T11:40:58.798Z,17.97
2022-10-06T11:43:43.876Z,18.03
2022-10-06T11:46:13.341Z,18.05
2022-10-06T11:48:40.511Z,18.16
2022-10-06T11:51:25.220Z,18.27
2022-10-06T11:53:52.945Z,18.37
2022-10-06T11:56:19.315Z,18.47
2022-10-06T11:58:51.805Z,18.59
2022-10-06T12:01:30.594Z,18.67
2022-10-06T12:04:09.143Z,18.49
2022-10-06T12:06:44.766Z,18.22
2022-10-06T12:09:31.768Z,18.22
2022-10-06T12:12:23.027Z,18.27
2022-10-06T12:18:04.976Z,17.83
2022-10-06T12:21:06.215Z,17.81
2022-10-06T12:23:48.422Z,17.77
2022-10-06T12:26:31.702Z,17.79
2022-10-06T12:29:20.590Z,17.65
2022-10-06T12:32:14.633Z,17.67
2022-10-06T12:35:08.266Z,18.00
2022-10-06T12:37:54.597Z,18.16
2022-10-06T12:40:40.610Z,18.37
2022-10-06T12:43:19.268Z,18.54
2022-10-06T12:45:59.534Z,18.54
2022-10-06T12:49:04.147Z,18.51
2022-10-06T12:51:41.344Z,18.48
2022-10-06T12:54:19.326Z,18.48
2022-10-06T12:56:58.696Z,18.54
2022-10-06T12:59:32.093Z,18.53
2022-10-06T13:02:01.459Z,18.50
2022-10-06T13:04:42.968Z,18.55
2022-10-06T13:07:57.384Z,18.44
2022-10-06T13:10:23.998Z,18.16
2022-10-06T13:12:52.130Z,18.04
2022-10-06T13:15:25.270Z,17.84
2022-10-06T13:18:12.945Z,17.59
2022-10-06T13:20:42.886Z,17.69
2022-10-06T13:23:11.810Z,17.80
2022-10-06T13:25:46.389Z,17.90
2022-10-06T13:28:34.323Z,18.00
2022-10-06T13:31:11.758Z,17.98
2022-10-06T13:33:44.273Z,18.04
2022-10-06T13:36:12.347Z,18.11
2022-10-06T13:38:39.861Z,18.05
2022-10-06T13:41:28.106Z,18.08
2022-10-06T13:43:56.148Z,18.15
2022-10-06T13:46:26.587Z,18.14
2022-10-06T13:48:59.533Z,18.01
2022-10-06T13:52:04.650Z,17.99
2022-10-06T13:54:53.852Z,18.27
2022-10-06T13:57:38.630Z,18.40
2022-10-06T14:00:36.747Z,18.48
2022-10-06T14:03:05.857Z,18.26
2022-10-06T14:05:40.919Z,18.11
2022-10-06T14:08:10.190Z,18.05
2022-10-06T14:10:51.680Z,18.06
2022-10-06T14:13:21.695Z,17.98
2022-10-06T14:15:50.972Z,17.95
2022-10-06T14:18:42.749Z,18.01
2022-10-06T14:21:28.760Z,17.99
2022-10-06T14:23:56.184Z,18.06
2022-10-06T14:26:28.669Z,18.05
2022-10-06T14:28:56.105Z,18.07
2022-10-06T14:31:25.839Z,18.09
2022-10-06T14:33:54.298Z,17.94
2022-10-06T14:36:36.310Z,17.80
2022-10-06T14:39:04.969Z,17.92
2022-10-06T14:41:32.037Z,17.93
2022-10-06T14:44:01.823Z,17.75
2022-10-06T14:46:29.888Z,17.79
2022-10-06T14:48:57.582Z,17.58
2022-10-06T14:51:26.001Z,17.48
2022-10-06T14:53:54.295Z,17.50
2022-10-06T14:56:36.176Z,17.50
2022-10-06T14:59:04.937Z,17.36
2022-10-06T15:01:33.318Z,17.29
2022-10-06T15:04:02.323Z,17.27
2022-10-06T15:06:48.010Z,17.26
2022-10-06T15:09:14.329Z,17.23
2022-10-06T15:11:41.270Z,17.11
2022-10-06T15:14:11.485Z,17.03
2022-10-06T15:16:40.706Z,16.95
2022-10-06T15:19:07.300Z,16.87
2022-10-06T15:21:34.179Z,16.77
2022-10-06T15:24:04.212Z,16.76
2022-10-06T15:26:49.527Z,16.73
2022-10-06T15:29:16.927Z,16.61
2022-10-06T15:31:52.895Z,16.55
2022-10-06T15:34:25.579Z,16.47
2022-10-06T15:36:53.367Z,16.39
2022-10-06T15:39:22.048Z,16.31
2022-10-06T15:41:48.520Z,16.27
2022-10-06T15:44:15.825Z,16.22
2022-10-06T15:46:44.801Z,16.15
2022-10-06T15:49:21.400Z,16.09
2022-10-06T15:52:03.603Z,16.03
2022-10-06T15:54:39.334Z,15.89
2022-10-06T15:57:11.601Z,15.75
2022-10-06T15:59:40.698Z,15.66
2022-10-06T16:02:14.394Z,15.57
2022-10-06T16:04:41.940Z,15.47
2022-10-06T16:07:14.123Z,15.38
2022-10-06T16:09:43.677Z,15.29
2022-10-06T16:12:13.873Z,15.24
2022-10-06T16:14:40.191Z,15.15
2022-10-06T16:17:07.667Z,15.03
2022-10-06T16:19:36.718Z,14.94
2022-10-06T16:22:05.053Z,14.84
2022-10-06T16:24:31.494Z,14.73
2022-10-06T16:26:59.702Z,14.67
2022-10-06T16:29:27.583Z,14.61
2022-10-06T16:31:54.106Z,14.54
2022-10-06T16:34:20.598Z,14.45
2022-10-06T16:36:46.927Z,14.35
2022-10-06T16:39:15.910Z,14.24
2022-10-06T16:41:42.908Z,14.16
2022-10-06T16:44:09.327Z,14.06
2022-10-06T16:46:35.762Z,13.97
2022-10-06T16:49:03.159Z,13.89
2022-10-06T16:58:45.729Z,13.55
2022-10-06T17:01:13.748Z,13.44
2022-10-06T17:03:41.126Z,13.34
2022-10-06T17:06:11.188Z,13.24
2022-10-06T17:08:38.530Z,13.13
2022-10-06T17:11:07.239Z,13.04
2022-10-06T17:13:35.464Z,12.96
2022-10-06T17:16:08.960Z,12.89
2022-10-06T17:18:36.051Z,12.82
2022-10-06T17:21:25.793Z,12.73
2022-10-06T17:23:58.238Z,12.64
2022-10-06T17:26:27.487Z,12.55
2022-10-06T17:29:06.094Z,12.47
2022-10-06T17:31:41.712Z,12.37
2022-10-06T17:34:12.019Z,12.27
2022-10-06T17:36:39.795Z,12.16
2022-10-06T17:39:08.250Z,12.07
2022-10-06T17:41:36.631Z,12.00
2022-10-06T17:44:05.971Z,11.91
2022-10-06T17:46:37.656Z,11.85
2022-10-06T17:49:09.889Z,11.79
2022-10-06T17:51:40.667Z,11.75
2022-10-06T17:54:12.258Z,11.70
2022-10-06T17:56:39.290Z,11.64
2022-10-06T17:59:08.591Z,11.59
2022-10-06T18:01:35.720Z,11.51
2022-10-06T18:04:05.004Z,11.44
2022-10-06T18:06:34.873Z,11.36
2022-10-06T18:09:02.668Z,11.29
2022-10-06T18:11:35.691Z,11.25
2022-10-06T18:14:24.101Z,11.18
2022-10-06T18:16:56.257Z,11.13
2022-10-06T18:19:30.136Z,11.08
2022-10-06T18:22:02.761Z,11.04
2022-10-06T18:24:31.216Z,11.00
2022-10-06T18:27:00.113Z,10.95
2022-10-06T18:29:30.361Z,10.91
2022-10-06T18:32:09.464Z,10.86
2022-10-06T18:37:30.723Z,10.74
2022-10-06T18:39:57.136Z,10.71
2022-10-06T18:42:24.059Z,10.64
2022-10-06T18:45:09.230Z,10.61
2022-10-06T18:47:54.016Z,10.55
2022-10-06T18:50:20.619Z,10.50
2022-10-06T18:52:46.985Z,10.46
2022-10-06T18:55:13.654Z,10.43
2022-10-06T18:57:40.836Z,10.38
2022-10-06T19:00:09.247Z,10.34
2022-10-06T19:02:35.655Z,10.30
2022-10-06T19:05:02.301Z,10.24
2022-10-06T19:07:30.625Z,10.21
2022-10-06T19:09:57.040Z,10.18
2022-10-06T19:12:23.467Z,10.17
2022-10-06T19:14:50.304Z,10.13
2022-10-06T19:17:16.729Z,10.07
2022-10-06T19:19:51.257Z,10.03
2022-10-06T19:22:19.898Z,9.99
2022-10-06T19:24:48.689Z,9.96
2022-10-06T19:27:20.561Z,9.92
2022-10-06T19:29:52.998Z,9.86
2022-10-06T19:32:23.445Z,9.81
2022-10-06T19:34:49.859Z,9.74
2022-10-06T19:37:16.897Z,9.69
2022-10-06T19:39:46.155Z,9.64
2022-10-06T19:42:33.160Z,9.61
2022-10-06T19:44:59.821Z,9.57
2022-10-06T19:47:27.222Z,9.52
2022-10-06T19:49:58.325Z,9.46
2022-10-06T19:52:26.231Z,9.38
2022-10-06T19:54:52.565Z,9.32
2022-10-06T19:57:18.907Z,9.28
2022-10-06T19:59:45.447Z,9.21
2022-10-06T20:02:12.017Z,9.16
2022-10-06T20:04:39.522Z,9.12
2022-10-06T20:07:05.977Z,9.06
2022-10-06T20:09:32.488Z,9.03
2022-10-06T20:12:00.095Z,9.00
2022-10-06T20:14:26.695Z,8.93
2022-10-06T20:16:55.282Z,8.90
2022-10-06T20:19:22.069Z,8.89
2022-10-06T20:21:48.922Z,8.87
2022-10-06T20:24:24.651Z,8.84
2022-10-06T20:26:52.251Z,8.78
2022-10-06T20:29:21.724Z,8.73
2022-10-06T20:31:51.188Z,8.70
2022-10-06T20:34:21.361Z,8.65
2022-10-06T20:36:51.887Z,8.60
2022-10-06T20:39:41.829Z,8.57
2022-10-06T20:42:13.872Z,8.57
2022-10-06T20:44:41.144Z,8.57
2022-10-06T20:47:08.834Z,8.54
2022-10-06T20:49:35.259Z,8.52
2022-10-06T20:52:02.721Z,8.50
2022-10-06T20:54:34.842Z,8.48
2022-10-06T20:57:03.904Z,8.46
2022-10-06T20:59:31.312Z,8.45
2022-10-06T21:01:59.975Z,8.43
2022-10-06T21:04:32.487Z,8.38
2022-10-06T21:06:58.945Z,8.34
2022-10-06T21:09:28.175Z,8.30
2022-10-06T21:11:54.544Z,8.27
2022-10-06T21:14:21.020Z,8.21
2022-10-06T21:16:50.539Z,8.16
2022-10-06T21:19:19.190Z,8.14
2022-10-06T21:21:51.732Z,8.13
2022-10-06T21:24:18.567Z,8.11
2022-10-06T21:26:45.036Z,8.10
2022-10-06T21:29:14.034Z,8.04
2022-10-06T21:31:41.402Z,7.99
2022-10-06T21:34:07.951Z,7.96
2022-10-06T21:36:34.368Z,7.96
2022-10-06T21:39:01.616Z,7.96
2022-10-06T21:41:30.697Z,7.93
2022-10-06T21:44:17.400Z,7.94
2022-10-06T21:46:55.378Z,7.93
2022-10-06T21:49:23.728Z,7.92
2022-10-06T21:51:52.536Z,7.88
2022-10-06T21:54:20.103Z,7.86
2022-10-06T21:56:46.855Z,7.85
2022-10-06T21:59:13.342Z,7.83
2022-10-06T22:01:42.296Z,7.83
2022-10-06T22:04:09.454Z,7.83
2022-10-06T22:06:36.858Z,7.82
2022-10-06T22:09:05.950Z,7.80
2022-10-06T22:11:35.308Z,7.80
2022-10-06T22:14:04.994Z,7.80
2022-10-06T22:16:33.583Z,7.80
2022-10-06T22:19:02.556Z,7.77
2022-10-06T22:21:31.913Z,7.73
2022-10-06T22:24:02.620Z,7.71
2022-10-06T22:26:31.240Z,7.72
2022-10-06T22:28:59.060Z,7.77
2022-10-06T22:31:27.039Z,7.77
2022-10-06T22:33:55.989Z,7.77
2022-10-06T22:36:22.764Z,7.74
2022-10-06T22:38:49.164Z,7.72
2022-10-06T22:41:15.962Z,7.69
2022-10-06T22:43:42.517Z,7.67
2022-10-06T22:46:10.891Z,7.67
2022-10-06T22:48:37.914Z,7.64
2022-10-06T22:51:05.286Z,7.61
2022-10-06T22:53:32.012Z,7.57
2022-10-06T22:56:02.651Z,7.53
2022-10-06T22:58:29.336Z,7.50
2022-10-06T23:00:55.853Z,7.49
2022-10-06T23:03:23.083Z,7.47
2022-10-06T23:05:57.289Z,7.47
2022-10-06T23:08:24.064Z,7.45
2022-10-06T23:10:50.791Z,7.41
2022-10-06T23:13:17.556Z,7.40
2022-10-06T23:15:44.023Z,7.42
2022-10-06T23:18:10.885Z,7.39
2022-10-06T23:20:37.364Z,7.38
2022-10-06T23:23:04.243Z,7.37
2022-10-06T23:25:30.656Z,7.38
2022-10-06T23:27:57.104Z,7.38
2022-10-06T23:30:23.601Z,7.35
2022-10-06T23:32:49.988Z,7.32
2022-10-06T23:35:16.432Z,7.32
2022-10-06T23:37:43.049Z,7.33
2022-10-06T23:40:10.210Z,7.31
2022-10-06T23:42:36.638Z,7.27
2022-10-06T23:45:03.102Z,7.28
2022-10-06T23:47:29.511Z,7.26
2022-10-06T23:49:55.877Z,7.24
2022-10-06T23:52:22.480Z,7.24
2022-10-06T23:54:49.560Z,7.25
2022-10-06T23:57:15.954Z,7.21
2022-10-06T23:59:42.341Z,7.17
